Terminal Aerodrome Forecast
Issued by NWS

Home | Current Version | Previous Version | Text Only | Print | Product List | Glossary Off
Versions: 1 2 3 4 5 6 7 8 9 10 11 12

660
FTUS43 KGRB 240525
TAFATW
TAF
KATW 240525Z 2406/2506 17007KT P6SM BKN250 WS005/21030KT
     FM241500 21008G15KT P6SM SCT050 BKN080 PROB30 2416/2420 3SM
      +TSRA OVC050CB
     FM250200 34009KT P6SM SCT035 OVC050 PROB30 2503/2506 5SM -SHRA
      BR BKN025=

USA.gov is the U.S. government's official web portal to all federal, state and local government web resources and services.